createdAt,value
2019-02-19T00:00:44.966Z,24.63
2019-02-19T00:03:11.643Z,25.55
2019-02-19T00:05:38.323Z,27.20
2019-02-19T00:08:05.142Z,26.77
2019-02-19T00:10:32.138Z,27.25
2019-02-19T00:12:58.757Z,22.17
2019-02-19T00:15:25.378Z,24.37
2019-02-19T00:17:52.798Z,23.43
2019-02-19T00:20:19.584Z,25.00
2019-02-19T00:22:46.435Z,29.50
2019-02-19T00:25:13.601Z,28.42
2019-02-19T00:27:41.896Z,24.30
2019-02-19T00:30:08.493Z,25.23
2019-02-19T00:32:35.099Z,19.40
2019-02-19T00:35:01.751Z,22.50
2019-02-19T00:37:28.724Z,20.20
2019-02-19T00:39:55.626Z,19.80
2019-02-19T00:42:22.692Z,22.07
2019-02-19T00:44:49.576Z,28.25
2019-02-19T00:47:16.206Z,21.77
2019-02-19T00:49:42.897Z,23.60
2019-02-19T00:52:09.926Z,26.77
2019-02-19T00:54:36.625Z,18.40
2019-02-19T00:59:29.853Z,25.50
2019-02-19T01:01:56.487Z,18.30
2019-02-19T01:04:23.105Z,24.27
2019-02-19T01:06:49.866Z,27.17
2019-02-19T01:09:16.811Z,23.90
2019-02-19T01:11:43.416Z,24.77
2019-02-19T01:14:11.450Z,23.18
2019-02-19T01:16:38.172Z,24.20
2019-02-19T01:19:04.900Z,22.47
2019-02-19T01:21:31.494Z,20.15
2019-02-19T01:23:58.268Z,21.75
2019-02-19T01:26:24.935Z,23.13
2019-02-19T01:28:51.582Z,21.95
2019-02-19T01:31:18.275Z,22.30
2019-02-19T01:33:44.957Z,19.37
2019-02-19T01:36:12.360Z,24.20
2019-02-19T01:38:38.914Z,24.30
2019-02-19T01:41:05.682Z,19.80
2019-02-19T01:45:58.819Z,22.30
2019-02-19T01:48:25.599Z,23.10
2019-02-19T01:50:52.208Z,22.10
2019-02-19T01:53:19.080Z,25.10
2019-02-19T01:55:48.517Z,22.80
2019-02-19T01:58:15.118Z,17.87
2019-02-19T02:00:43.380Z,21.30
2019-02-19T02:10:31.486Z,25.90
2019-02-19T02:12:59.277Z,17.80
2019-02-19T02:15:25.893Z,17.50
2019-02-19T02:17:52.569Z,21.33
2019-02-19T02:20:19.653Z,20.80
2019-02-19T02:22:46.247Z,21.03
2019-02-19T02:25:14.582Z,22.87
2019-02-19T02:27:41.439Z,20.00
2019-02-19T02:30:08.036Z,25.50
2019-02-19T02:32:34.673Z,20.70
2019-02-19T02:35:01.405Z,22.60
2019-02-19T02:37:28.144Z,19.30
2019-02-19T02:39:54.962Z,25.27
2019-02-19T02:42:24.268Z,18.70
2019-02-19T02:49:45.357Z,22.37
2019-02-19T02:52:12.160Z,25.47
2019-02-19T02:54:39.086Z,20.27
2019-02-19T02:57:05.713Z,23.10
2019-02-19T02:59:32.316Z,22.50
2019-02-19T03:01:59.274Z,20.00
2019-02-19T03:04:26.475Z,20.92
2019-02-19T03:06:53.395Z,22.50
2019-02-19T03:09:20.288Z,30.18
2019-02-19T03:11:46.875Z,24.00
2019-02-19T03:14:13.480Z,18.90
2019-02-19T03:16:40.165Z,23.10
2019-02-19T03:19:06.811Z,19.63
2019-02-19T03:21:33.660Z,23.43
2019-02-19T03:24:00.580Z,25.67
2019-02-19T03:26:27.266Z,22.50
2019-02-19T03:28:54.149Z,26.13
2019-02-19T03:31:20.866Z,19.90
2019-02-19T03:33:47.863Z,25.10
2019-02-19T03:36:16.183Z,22.67
2019-02-19T03:38:43.002Z,20.70
2019-02-19T03:41:10.002Z,24.40
2019-02-19T03:43:37.055Z,30.67
2019-02-19T03:46:11.734Z,23.40
2019-02-19T03:48:33.898Z,22.87
2019-02-19T03:51:00.616Z,29.67
2019-02-19T03:53:27.209Z,21.33
2019-02-19T03:55:54.292Z,22.03
2019-02-19T03:58:21.269Z,23.93
2019-02-19T04:00:48.238Z,27.20
2019-02-19T04:03:16.160Z,21.17
2019-02-19T04:05:42.786Z,20.77
2019-02-19T04:08:09.514Z,23.80
2019-02-19T04:10:36.145Z,24.47
2019-02-19T04:13:03.136Z,25.07
2019-02-19T04:15:29.720Z,23.77
2019-02-19T04:17:56.629Z,25.87
2019-02-19T04:20:23.548Z,24.95
2019-02-19T04:22:50.737Z,25.15
2019-02-19T04:25:17.674Z,21.40
2019-02-19T04:27:44.652Z,23.18
2019-02-19T04:30:11.290Z,18.17
2019-02-19T04:32:37.908Z,22.73
2019-02-19T04:35:04.715Z,18.60
2019-02-19T04:37:31.349Z,20.57
2019-02-19T04:39:57.994Z,24.13
2019-02-19T04:42:24.983Z,16.70
2019-02-19T04:44:51.950Z,25.13
2019-02-19T04:47:18.884Z,19.83
2019-02-19T04:49:46.760Z,23.67
2019-02-19T04:52:13.416Z,20.47
2019-02-19T04:54:40.071Z,19.77
2019-02-19T04:57:07.021Z,21.97
2019-02-19T04:59:33.682Z,19.47
2019-02-19T05:02:00.276Z,20.30
2019-02-19T05:04:27.126Z,22.62
2019-02-19T05:06:53.859Z,23.18
2019-02-19T05:09:20.463Z,21.23
2019-02-19T05:11:47.612Z,19.70
2019-02-19T05:14:14.314Z,20.93
2019-02-19T05:16:41.324Z,22.43
2019-02-19T05:19:08.334Z,23.70
2019-02-19T05:21:35.315Z,26.45
2019-02-19T05:24:01.904Z,24.82
2019-02-19T05:26:28.495Z,26.30
2019-02-19T05:28:55.685Z,23.17
2019-02-19T05:31:22.422Z,22.87
2019-02-19T05:33:49.025Z,23.47
2019-02-19T05:36:15.718Z,29.97
2019-02-19T05:38:42.678Z,22.93
2019-02-19T05:41:09.542Z,20.60
2019-02-19T05:43:36.310Z,20.43
2019-02-19T05:46:02.917Z,22.43
2019-02-19T05:48:29.710Z,20.93
2019-02-19T05:50:56.342Z,24.63
2019-02-19T05:53:23.261Z,21.33
2019-02-19T05:55:49.845Z,22.13
2019-02-19T05:58:18.218Z,20.85
2019-02-19T06:00:44.857Z,21.83
2019-02-19T06:03:11.559Z,28.33
2019-02-19T06:05:38.138Z,18.90
2019-02-19T06:08:05.012Z,24.73
2019-02-19T06:10:31.916Z,21.10
2019-02-19T06:12:58.597Z,12.70
2019-02-19T06:15:25.188Z,25.63
2019-02-19T06:17:52.005Z,25.17
2019-02-19T06:20:18.615Z,22.43
2019-02-19T06:22:45.258Z,19.57
2019-02-19T06:25:12.193Z,19.97
2019-02-19T06:27:39.057Z,22.73
2019-02-19T06:30:05.722Z,23.57
2019-02-19T06:32:32.363Z,17.53
2019-02-19T06:34:59.284Z,18.60
2019-02-19T06:37:25.951Z,18.97
2019-02-19T06:39:52.718Z,20.82
2019-02-19T06:42:19.464Z,20.17
2019-02-19T06:44:46.116Z,17.17
2019-02-19T06:47:12.771Z,18.23
2019-02-19T06:49:39.608Z,26.20
2019-02-19T06:52:06.205Z,21.03
2019-02-19T06:54:32.956Z,25.40
2019-02-19T06:56:59.902Z,21.70
2019-02-19T06:59:27.007Z,17.60
2019-02-19T07:01:56.250Z,15.28
2019-02-19T07:04:24.283Z,15.43
2019-02-19T07:06:50.874Z,20.43
2019-02-19T07:09:17.595Z,18.97
2019-02-19T07:11:45.480Z,15.67
2019-02-19T07:14:12.134Z,23.07
2019-02-19T07:16:38.726Z,15.87
2019-02-19T07:19:05.751Z,19.83
2019-02-19T07:21:32.979Z,15.50
2019-02-19T07:24:04.383Z,14.33
2019-02-19T07:26:28.715Z,16.48
2019-02-19T07:28:55.411Z,19.63
2019-02-19T07:31:22.117Z,16.50
2019-02-19T07:33:48.848Z,13.73
2019-02-19T07:36:15.725Z,17.50
2019-02-19T07:38:42.332Z,15.53
2019-02-19T07:41:09.017Z,13.30
2019-02-19T07:43:36.227Z,15.57
2019-02-19T07:46:03.246Z,17.70
2019-02-19T07:48:30.107Z,17.23
2019-02-19T07:50:57.353Z,16.07
2019-02-19T07:53:26.895Z,12.50
2019-02-19T07:55:54.853Z,13.00
2019-02-19T07:58:21.470Z,15.27
2019-02-19T08:00:48.416Z,11.17
2019-02-19T08:03:15.750Z,15.00
2019-02-19T08:05:42.433Z,16.50
2019-02-19T08:08:09.667Z,17.02
2019-02-19T08:10:36.539Z,11.53
2019-02-19T08:13:03.480Z,13.00
2019-02-19T08:15:30.347Z,17.12
2019-02-19T08:17:56.965Z,14.23
2019-02-19T08:20:23.582Z,12.43
2019-02-19T08:22:50.906Z,13.10
2019-02-19T08:25:17.606Z,12.27
2019-02-19T08:27:44.426Z,12.33
2019-02-19T08:30:11.436Z,14.20
2019-02-19T08:32:38.452Z,18.50
2019-02-19T08:35:05.065Z,15.63
2019-02-19T08:37:31.823Z,14.90
2019-02-19T08:39:58.537Z,15.47
2019-02-19T08:42:26.317Z,12.37
2019-02-19T08:44:53.070Z,12.00
2019-02-19T08:47:20.120Z,16.57
2019-02-19T08:49:47.102Z,14.53
2019-02-19T08:52:13.774Z,13.27
2019-02-19T08:54:42.716Z,9.50
2019-02-19T08:57:11.969Z,9.83
2019-02-19T08:59:40.755Z,10.90
2019-02-19T09:02:07.403Z,11.63
2019-02-19T09:04:34.299Z,8.97
2019-02-19T09:07:01.412Z,9.40
2019-02-19T09:09:28.290Z,11.53
2019-02-19T09:11:56.782Z,9.46
2019-02-19T09:14:23.455Z,8.23
2019-02-19T09:16:50.457Z,8.47
2019-02-19T09:19:17.462Z,10.13
2019-02-19T09:21:44.089Z,8.67
2019-02-19T09:24:10.785Z,12.05
2019-02-19T09:26:37.511Z,9.13
2019-02-19T09:29:04.117Z,10.30
2019-02-19T09:31:31.054Z,12.97
2019-02-19T09:33:57.752Z,12.40
2019-02-19T09:36:24.667Z,14.40
2019-02-19T09:38:51.302Z,9.63
2019-02-19T09:41:18.485Z,7.22
2019-02-19T09:43:45.337Z,10.33
2019-02-19T09:46:13.322Z,9.78
2019-02-19T09:48:39.998Z,11.53
2019-02-19T09:51:06.644Z,9.83
2019-02-19T09:53:33.977Z,15.10
2019-02-19T09:56:01.891Z,12.35
2019-02-19T09:58:28.603Z,13.47
2019-02-19T10:00:55.310Z,21.30
2019-02-19T10:03:21.953Z,25.80
2019-02-19T10:05:49.193Z,24.90
2019-02-19T10:08:16.681Z,19.55
2019-02-19T10:10:43.325Z,24.67
2019-02-19T10:13:10.156Z,21.17
2019-02-19T10:15:36.851Z,25.53
2019-02-19T10:18:10.088Z,27.17
2019-02-19T10:20:32.532Z,23.07
2019-02-19T10:22:59.211Z,21.17
2019-02-19T10:25:26.164Z,21.17
2019-02-19T10:27:53.314Z,27.42
2019-02-19T10:30:20.495Z,25.35
2019-02-19T10:32:47.200Z,24.87
2019-02-19T10:35:13.902Z,20.70
2019-02-19T10:37:40.585Z,18.10
2019-02-19T10:40:07.528Z,22.20
2019-02-19T10:42:34.318Z,22.43
2019-02-19T10:47:36.546Z,21.57
2019-02-19T10:50:04.245Z,19.43
2019-02-19T10:52:32.132Z,22.60
2019-02-19T10:54:59.298Z,20.37
2019-02-19T10:57:25.977Z,25.13
2019-02-19T10:59:52.647Z,20.70
2019-02-19T11:02:19.582Z,21.90
2019-02-19T11:04:46.175Z,19.23
2019-02-19T11:07:13.002Z,21.50
2019-02-19T11:09:40.674Z,19.63
2019-02-19T11:12:07.577Z,20.67
2019-02-19T11:14:34.194Z,23.07
2019-02-19T11:17:00.881Z,19.63
2019-02-19T11:19:27.755Z,25.53
2019-02-19T11:21:54.706Z,22.00
2019-02-19T11:24:21.351Z,24.25
2019-02-19T11:26:47.970Z,19.83
2019-02-19T11:29:15.113Z,21.75
2019-02-19T11:31:42.103Z,21.00
2019-02-19T11:34:10.124Z,23.77
2019-02-19T11:36:36.907Z,21.55
2019-02-19T11:39:03.533Z,20.57
2019-02-19T11:41:31.197Z,24.13
2019-02-19T11:43:58.013Z,24.13
2019-02-19T11:46:24.678Z,19.93
2019-02-19T11:48:51.918Z,15.65
2019-02-19T11:51:18.539Z,18.60
2019-02-19T11:53:45.485Z,18.73
2019-02-19T11:56:12.419Z,19.07
2019-02-19T11:58:46.811Z,20.32
2019-02-19T12:01:13.902Z,16.75
2019-02-19T12:03:40.874Z,21.33
2019-02-19T12:06:07.615Z,21.55
2019-02-19T12:08:38.981Z,19.73
2019-02-19T12:11:03.748Z,16.40
2019-02-19T12:13:30.488Z,19.07
2019-02-19T12:15:57.175Z,17.73
2019-02-19T12:18:23.871Z,21.90
2019-02-19T12:20:50.846Z,18.87
2019-02-19T12:23:18.016Z,19.23
2019-02-19T12:25:44.774Z,18.57
2019-02-19T12:28:11.899Z,18.82
2019-02-19T12:30:38.933Z,20.23
2019-02-19T12:33:05.943Z,18.50
2019-02-19T12:35:34.136Z,18.10
2019-02-19T12:38:00.934Z,21.50
2019-02-19T12:40:27.799Z,17.93
2019-02-19T12:42:54.415Z,25.23
2019-02-19T12:45:21.112Z,22.37
2019-02-19T12:47:48.191Z,20.65
2019-02-19T12:50:14.982Z,20.13
2019-02-19T12:52:42.374Z,17.98
2019-02-19T12:55:09.292Z,17.83
2019-02-19T12:57:36.892Z,17.43
2019-02-19T13:00:04.568Z,19.27
2019-02-19T13:02:31.361Z,19.33
2019-02-19T13:04:58.504Z,18.07
2019-02-19T13:07:26.199Z,18.23
2019-02-19T13:09:52.892Z,18.42
2019-02-19T13:12:19.514Z,16.67
2019-02-19T13:14:46.589Z,19.80
2019-02-19T13:17:13.519Z,16.00
2019-02-19T13:19:40.430Z,20.75
2019-02-19T13:22:07.118Z,17.33
2019-02-19T13:24:34.961Z,13.60
2019-02-19T13:27:01.593Z,14.90
2019-02-19T13:29:28.242Z,16.10
2019-02-19T13:31:54.826Z,24.00
2019-02-19T13:34:21.908Z,17.93
2019-02-19T13:36:48.747Z,18.35
2019-02-19T13:39:15.408Z,16.47
2019-02-19T13:41:42.283Z,13.87
2019-02-19T13:44:08.927Z,16.95
2019-02-19T13:46:35.553Z,13.10
2019-02-19T13:49:02.208Z,11.37
2019-02-19T13:51:29.060Z,14.77
2019-02-19T13:53:55.682Z,16.57
2019-02-19T13:56:22.493Z,16.17
2019-02-19T13:58:49.152Z,15.17
2019-02-19T14:01:15.903Z,19.80
2019-02-19T14:03:42.516Z,14.73
2019-02-19T14:06:09.477Z,17.87
2019-02-19T14:08:36.335Z,22.33
2019-02-19T14:11:03.006Z,13.43
2019-02-19T14:13:29.703Z,18.07
2019-02-19T14:15:56.311Z,12.77
2019-02-19T14:18:24.620Z,18.60
2019-02-19T14:20:51.431Z,13.20
2019-02-19T14:23:19.215Z,16.30
2019-02-19T14:25:45.955Z,15.27
2019-02-19T14:28:12.939Z,14.80
2019-02-19T14:30:39.707Z,13.80
2019-02-19T14:33:06.680Z,14.47
2019-02-19T14:35:33.533Z,12.97
2019-02-19T14:38:00.168Z,13.83
2019-02-19T14:40:26.791Z,16.03
2019-02-19T14:42:53.890Z,13.35
2019-02-19T14:45:20.746Z,14.63
2019-02-19T14:47:50.413Z,14.05
2019-02-19T14:50:19.756Z,13.00
2019-02-19T14:52:47.969Z,17.80
2019-02-19T14:55:16.415Z,10.23
2019-02-19T14:57:45.778Z,14.00
2019-02-19T15:00:13.164Z,13.93
2019-02-19T15:02:42.280Z,13.53
2019-02-19T15:05:13.533Z,11.27
2019-02-19T15:07:44.053Z,11.73
2019-02-19T15:10:10.990Z,15.47
2019-02-19T15:12:38.220Z,14.03
2019-02-19T15:15:06.299Z,11.88
2019-02-19T15:17:36.417Z,14.80
2019-02-19T15:20:07.556Z,9.77
2019-02-19T15:22:41.358Z,15.17
2019-02-19T15:25:11.411Z,12.53
2019-02-19T15:27:39.827Z,12.93
2019-02-19T15:30:08.289Z,10.90
2019-02-19T15:32:34.930Z,15.30
2019-02-19T15:35:12.333Z,18.87
2019-02-19T15:37:39.190Z,10.53
2019-02-19T15:40:06.263Z,10.90
2019-02-19T15:42:37.165Z,41.30
2019-02-19T15:45:06.254Z,17.20
2019-02-19T15:47:33.050Z,12.70
2019-02-19T15:50:01.840Z,12.47
2019-02-19T15:52:35.152Z,13.27
2019-02-19T15:55:04.447Z,10.48
2019-02-19T15:57:38.516Z,10.43
2019-02-19T16:00:03.507Z,10.73
2019-02-19T16:02:32.148Z,9.57
2019-02-19T16:05:02.055Z,14.77
2019-02-19T16:07:33.398Z,11.97
2019-02-19T16:10:01.040Z,13.37
2019-02-19T16:12:28.556Z,21.57
2019-02-19T16:14:57.535Z,14.70
2019-02-19T16:17:25.162Z,17.10
2019-02-19T16:19:56.953Z,16.27
2019-02-19T16:22:22.038Z,16.53
2019-02-19T16:24:49.845Z,14.77
2019-02-19T16:27:17.712Z,19.87
2019-02-19T16:29:47.425Z,11.48
2019-02-19T16:32:15.229Z,18.98
2019-02-19T16:34:44.478Z,14.97
2019-02-19T16:37:12.376Z,14.43
2019-02-19T16:39:42.277Z,13.83
2019-02-19T16:42:12.018Z,20.93
2019-02-19T16:44:43.269Z,16.60
2019-02-19T16:47:11.058Z,20.00
2019-02-19T16:49:41.786Z,18.20
2019-02-19T16:52:13.034Z,14.87
2019-02-19T16:54:42.086Z,17.63
2019-02-19T16:57:10.362Z,18.17
2019-02-19T16:59:41.349Z,15.47
2019-02-19T17:02:08.273Z,19.30
2019-02-19T17:04:35.067Z,18.00
2019-02-19T17:07:01.912Z,15.83
2019-02-19T17:09:28.550Z,14.83
2019-02-19T17:11:55.728Z,14.47
2019-02-19T17:14:32.763Z,14.47
2019-02-19T17:16:55.281Z,20.27
2019-02-19T17:19:22.888Z,16.30
2019-02-19T17:21:50.597Z,13.80
2019-02-19T17:24:18.698Z,15.13
2019-02-19T17:26:47.371Z,11.57
2019-02-19T17:29:15.054Z,12.10
2019-02-19T17:31:42.876Z,14.93
2019-02-19T17:34:10.734Z,23.27
2019-02-19T17:36:40.609Z,23.42
2019-02-19T17:39:11.555Z,22.52
2019-02-19T17:41:39.433Z,31.70
2019-02-19T17:44:06.113Z,31.80
2019-02-19T17:46:34.005Z,23.77
2019-02-19T17:49:08.058Z,22.37
2019-02-19T17:51:35.403Z,23.67
2019-02-19T17:54:03.144Z,21.40
2019-02-19T17:56:31.016Z,16.40
2019-02-19T17:59:02.465Z,20.27
2019-02-19T18:01:33.350Z,19.47
2019-02-19T18:04:00.310Z,19.35
2019-02-19T18:06:26.952Z,24.50
2019-02-19T18:08:53.555Z,22.30
2019-02-19T18:11:20.730Z,20.05
2019-02-19T18:13:47.426Z,22.17
2019-02-19T18:16:15.036Z,23.17
2019-02-19T18:18:41.794Z,21.17
2019-02-19T18:21:08.970Z,22.53
2019-02-19T18:23:35.561Z,22.73
2019-02-19T18:26:02.160Z,20.60
2019-02-19T18:28:28.942Z,21.30
2019-02-19T18:30:55.610Z,19.50
2019-02-19T18:33:22.820Z,20.60
2019-02-19T18:35:49.673Z,22.27
2019-02-19T18:38:16.863Z,19.82
2019-02-19T18:40:43.861Z,19.57
2019-02-19T18:43:10.804Z,17.57
2019-02-19T18:45:39.245Z,18.66
2019-02-19T18:48:06.821Z,16.90
2019-02-19T18:53:00.736Z,23.20
2019-02-19T18:55:27.520Z,13.83
2019-02-19T18:57:54.510Z,19.43
2019-02-19T19:00:22.033Z,29.52
2019-02-19T19:02:49.794Z,18.77
2019-02-19T19:05:17.279Z,19.23
2019-02-19T19:07:45.016Z,23.17
2019-02-19T19:10:11.657Z,19.50
2019-02-19T19:12:39.553Z,19.15
2019-02-19T19:15:07.181Z,20.63
2019-02-19T19:17:33.851Z,22.10
2019-02-19T19:20:00.497Z,22.77
2019-02-19T19:22:27.574Z,24.27
2019-02-19T19:24:54.492Z,29.53
2019-02-19T19:27:21.372Z,21.13
2019-02-19T19:29:48.019Z,25.72
2019-02-19T19:32:14.962Z,22.70
2019-02-19T19:34:41.868Z,26.53
2019-02-19T19:37:10.784Z,25.20
2019-02-19T19:39:37.663Z,27.43
2019-02-19T19:42:04.668Z,24.43
2019-02-19T19:44:31.664Z,27.50
2019-02-19T19:46:58.708Z,25.10
2019-02-19T19:49:25.911Z,24.20
2019-02-19T19:51:52.670Z,31.30
2019-02-19T19:54:19.623Z,25.77
2019-02-19T19:56:46.304Z,27.80
2019-02-19T19:59:13.461Z,31.77
2019-02-19T20:01:40.341Z,23.17
2019-02-19T20:04:07.041Z,29.13
2019-02-19T20:06:33.941Z,27.75
2019-02-19T20:09:00.602Z,30.40
2019-02-19T20:11:27.492Z,27.77
2019-02-19T20:13:54.398Z,28.40
2019-02-19T20:16:21.828Z,26.57
2019-02-19T20:18:50.665Z,33.83
2019-02-19T20:21:26.576Z,32.93
2019-02-19T20:23:49.988Z,35.30
2019-02-19T20:26:16.929Z,30.10
2019-02-19T20:28:43.962Z,30.27
2019-02-19T20:31:11.031Z,23.70
2019-02-19T20:33:38.136Z,26.73
2019-02-19T20:36:04.886Z,33.30
2019-02-19T20:38:31.897Z,32.97
2019-02-19T20:40:58.740Z,31.20
2019-02-19T20:43:25.643Z,27.10
2019-02-19T20:45:52.263Z,30.77
2019-02-19T20:48:19.226Z,28.60
2019-02-19T20:50:45.838Z,26.20
2019-02-19T20:53:12.802Z,31.90
2019-02-19T21:03:00.387Z,32.35
2019-02-19T21:05:27.044Z,30.40
2019-02-19T21:25:01.071Z,33.30
2019-02-19T21:29:55.148Z,32.80
2019-02-19T21:34:48.450Z,40.20
2019-02-19T21:39:42.339Z,28.20
2019-02-19T21:49:28.764Z,27.70
2019-02-19T21:54:22.696Z,30.95
2019-02-19T21:59:16.343Z,35.00
2019-02-19T22:01:45.989Z,31.30
2019-02-19T22:04:12.859Z,29.50
2019-02-19T22:09:06.100Z,27.40
2019-02-19T22:11:33.081Z,30.77
2019-02-19T22:13:59.791Z,29.33
2019-02-19T22:16:26.357Z,31.00
2019-02-19T22:18:53.194Z,28.00
2019-02-19T22:21:20.035Z,31.55
2019-02-19T22:23:46.687Z,31.82
2019-02-19T22:26:13.349Z,27.57
2019-02-19T22:28:40.308Z,28.50
2019-02-19T22:31:06.920Z,28.77
2019-02-19T22:33:34.310Z,27.17
2019-02-19T22:36:01.190Z,26.97
2019-02-19T22:38:27.781Z,28.70
2019-02-19T22:40:55.431Z,26.83
2019-02-19T22:43:22.461Z,27.97
2019-02-19T22:45:49.142Z,23.45
2019-02-19T22:48:15.804Z,24.13
2019-02-19T22:50:43.063Z,22.20
2019-02-19T22:53:09.686Z,24.60
2019-02-19T22:55:36.676Z,23.50
2019-02-19T22:58:03.318Z,25.13
2019-02-19T23:00:30.241Z,23.85
2019-02-19T23:02:56.836Z,26.13
2019-02-19T23:05:23.783Z,23.42
2019-02-19T23:07:50.399Z,28.87
2019-02-19T23:10:17.028Z,26.02
2019-02-19T23:12:43.960Z,27.47
2019-02-19T23:15:10.906Z,28.40
2019-02-19T23:17:37.893Z,27.35
2019-02-19T23:20:04.542Z,25.70
2019-02-19T23:22:31.207Z,29.77
2019-02-19T23:24:58.111Z,29.10
2019-02-19T23:27:25.054Z,27.00
2019-02-19T23:29:52.057Z,24.77
2019-02-19T23:32:19.236Z,23.10
2019-02-19T23:34:46.235Z,26.50
2019-02-19T23:37:13.542Z,22.37
2019-02-19T23:39:43.566Z,22.63
2019-02-19T23:42:09.066Z,24.17
2019-02-19T23:44:35.738Z,24.83
2019-02-19T23:47:02.377Z,22.87
2019-02-19T23:49:29.358Z,20.73
2019-02-19T23:51:56.091Z,27.37
2019-02-19T23:54:22.751Z,23.70
2019-02-19T23:56:49.662Z,27.47
2019-02-19T23:59:16.592Z,23.23
